map of TPS home
TPS - Airport
Location
City:  Trapani, Sicily, Italy
Name:Vincenzo Florio Airport
Old (Alt.):Birgi
ICAO:LICT
IATA:TPS

Details
Type:Airport (Aerodrome, Airfield)
Use:Public/Civil, Military, International (customs port of entry)
Latitude:3754'41"N (37.911403)
Longitude:1229'17"E (12.487961)
Datum:WGS 1984
Elevation:24 ft (7 m)
Variation:2.83E (WMM2015 magnetic declination)
0.10 annual change
Runways:1
Longest:8852 × 148 ft (2698 × 45 m), paved

Time
Time Zone:UTC+1 (DST+2)
Local Time:

Weather
METAR:LICT 111255Z 16030G41KT 9999 FEW025 17/11 Q1011

Related Locations
Nearby:
Farthest:CHT: 11816 mi / 19017 km
Waitangi [Tuuta], CIT, NZ

Find:

   beyond  
but within

Other Information
Maps:
NOTAMs:
Links:
Sources:

  
flag of Italy
flag of Sicily
  

Sectional Chart

Flight Planning
at skyvector.com

Satellite Image

Google Maps Satellite view

 

Copyright © 2004-2017 Karl L. Swartz. All rights reserved.
The Great Circle Mapper name and logo are trademarks of the Great Circle Mapper.
All other trademarks mentioned herein belong to their respective owners.
Please see credits for attibutions and further copyright information.

  Follow gcmap on Facebook Follow gcmap on Twitter Follow gcmap on Google+ GCmap on LinkedIn

hCard Microformat

Geo Microformat